Time;durP1;ratioP1;P1;durP2;ratioP2;P2;SDS_P1;SDS_P2;PMS_P1;PMS_P2;Temp;Humidity;BMP_temperature;BMP_pressure;BME280_temperature;BME280_humidity;BME280_pressure;Samples;Min_cycle;Max_cycle;Signal;HPM_P1;HPM_P2
2021/06/11 00:02:54;;;;;;;9.40;8.50;;;15.20;99.90;;;;;;5092499;28;20461;-75
2021/06/11 00:05:21;;;;;;;12.90;9.00;;;15.20;99.90;;;;;;5083064;28;20489;-75
2021/06/11 00:07:48;;;;;;;12.10;8.30;;;15.30;99.90;;;;;;5092659;28;20461;-75
2021/06/11 00:10:15;;;;;;;9.40;8.50;;;15.30;99.90;;;;;;5092798;28;20462;-75
2021/06/11 00:12:42;;;;;;;10.53;9.57;;;15.30;99.90;;;;;;5092206;28;20964;-75
2021/06/11 00:15:10;;;;;;;9.10;8.20;;;15.20;99.90;;;;;;5092683;28;20480;-75
2021/06/11 00:17:37;;;;;;;10.13;9.20;;;15.20;99.90;;;;;;5092669;28;20885;-75
2021/06/11 00:20:04;;;;;;;8.93;8.03;;;15.20;99.90;;;;;;5092459;28;20453;-75
2021/06/11 00:22:30;;;;;;;8.90;8.10;;;15.20;99.90;;;;;;5092324;28;20462;-74
2021/06/11 00:24:58;;;;;;;9.50;8.50;;;15.20;99.90;;;;;;5092123;28;20485;-75
2021/06/11 00:27:24;;;;;;;8.53;7.73;;;15.20;99.90;;;;;;5092385;28;20465;-75
2021/06/11 00:29:51;;;;;;;8.57;7.70;;;15.10;99.90;;;;;;5092127;28;20543;-75
2021/06/11 00:32:17;;;;;;;8.97;8.17;;;15.10;99.90;;;;;;5092082;28;20477;-75
2021/06/11 00:34:43;;;;;;;8.53;7.73;;;15.10;99.90;;;;;;5092502;28;20614;-75
2021/06/11 00:37:09;;;;;;;8.23;7.43;;;15.00;99.90;;;;;;5091883;28;20453;-75
2021/06/11 00:39:35;;;;;;;9.83;8.93;;;15.00;99.90;;;;;;5092024;28;20454;-75
2021/06/11 00:42:04;;;;;;;9.80;8.33;;;15.00;99.90;;;;;;5091073;28;20454;-75
2021/06/11 00:44:30;;;;;;;9.60;8.70;;;15.00;99.90;;;;;;5091976;28;20543;-75
2021/06/11 00:46:56;;;;;;;9.00;8.20;;;14.90;99.90;;;;;;5091760;28;20472;-75
2021/06/11 00:49:23;;;;;;;9.77;8.80;;;14.80;99.90;;;;;;5092027;28;20982;-75
2021/06/11 00:51:50;;;;;;;9.07;8.27;;;14.80;99.90;;;;;;5091312;28;20466;-75
2021/06/11 00:54:16;;;;;;;9.00;8.20;;;14.80;99.90;;;;;;5091644;28;20480;-75
2021/06/11 00:56:43;;;;;;;9.90;8.30;;;14.80;99.90;;;;;;5092023;28;20470;-75
2021/06/11 00:59:11;;;;;;;8.37;7.60;;;14.70;99.90;;;;;;5091692;28;20462;-75
2021/06/11 01:01:39;;;;;;;9.77;8.87;;;14.70;99.90;;;;;;5091523;28;20893;-75
2021/06/11 01:04:05;;;;;;;10.90;9.80;;;14.70;99.90;;;;;;5091212;28;20527;-75
2021/06/11 01:06:31;;;;;;;9.90;9.00;;;14.70;99.90;;;;;;5091677;28;20457;-75
2021/06/11 01:08:59;;;;;;;10.73;9.70;;;14.60;99.90;;;;;;5091930;28;20462;-75
2021/06/11 01:11:26;;;;;;;9.20;8.40;;;14.60;99.90;;;;;;5090858;28;20460;-75
2021/06/11 01:13:53;;;;;;;9.77;8.87;;;14.70;99.90;;;;;;5091459;28;20507;-75
2021/06/11 01:16:20;;;;;;;10.33;8.77;;;14.70;99.90;;;;;;5091099;28;20464;-75
2021/06/11 01:18:47;;;;;;;10.37;9.47;;;14.70;99.90;;;;;;5091259;28;20454;-75
2021/06/11 01:21:13;;;;;;;10.83;9.83;;;14.70;99.90;;;;;;5090947;28;20465;-75
2021/06/11 01:24:02;;;;;;;10.47;9.40;;;14.70;99.90;;;;;;5091115;28;20481;-75
2021/06/11 01:26:31;;;;;;;11.03;10.03;;;14.70;99.90;;;;;;5080533;28;20472;-75
2021/06/11 01:29:01;;;;;;;9.23;8.33;;;14.70;99.90;;;;;;5090796;28;20991;-75
2021/06/11 01:31:30;;;;;;;10.50;9.03;;;14.70;99.90;;;;;;5090940;28;20457;-75
2021/06/11 01:34:01;;;;;;;10.07;8.70;;;14.70;99.90;;;;;;5090748;28;20485;-75
2021/06/11 01:36:31;;;;;;;10.13;9.23;;;14.70;99.90;;;;;;5091233;28;20461;-75
2021/06/11 01:39:01;;;;;;;10.23;9.33;;;14.60;99.90;;;;;;5090782;28;20461;-75
2021/06/11 01:41:29;;;;;;;11.60;9.47;;;14.60;99.90;;;;;;5090797;28;20510;-75
2021/06/11 01:43:57;;;;;;;10.27;9.27;;;14.60;99.90;;;;;;5091055;28;20477;-75
2021/06/11 01:46:26;;;;;;;9.60;8.60;;;14.50;99.90;;;;;;5090536;28;20504;-75
2021/06/11 01:48:52;;;;;;;9.43;8.63;;;14.60;99.90;;;;;;5090818;28;20465;-75
2021/06/11 01:51:20;;;;;;;11.93;9.67;;;14.50;99.90;;;;;;5089928;28;20457;-75
2021/06/11 01:53:48;;;;;;;14.80;9.30;;;14.50;99.90;;;;;;5090658;28;20521;-75
2021/06/11 01:56:18;;;;;;;10.60;8.47;;;14.50;99.90;;;;;;5090592;28;20453;-75
2021/06/11 01:58:45;;;;;;;9.57;8.70;;;14.50;99.90;;;;;;5090783;28;20506;-75
2021/06/11 02:01:13;;;;;;;9.37;8.43;;;14.40;99.90;;;;;;5090651;28;20458;-75
2021/06/11 02:03:40;;;;;;;10.40;9.17;;;14.40;99.90;;;;;;5090291;28;21096;-75
2021/06/11 02:06:07;;;;;;;9.67;8.77;;;14.40;99.90;;;;;;5090644;28;20505;-75
2021/06/11 02:08:34;;;;;;;12.20;10.17;;;14.30;99.90;;;;;;5090095;28;20472;-75
2021/06/11 02:11:01;;;;;;;9.43;8.43;;;14.30;99.90;;;;;;5090652;28;20846;-75
2021/06/11 02:13:27;;;;;;;10.10;9.00;;;14.30;99.90;;;;;;5090214;28;20899;-75
2021/06/11 02:15:56;;;;;;;10.13;9.03;;;14.30;99.90;;;;;;5090557;28;20897;-75
2021/06/11 02:18:23;;;;;;;9.33;8.43;;;14.30;99.90;;;;;;5090702;28;20484;-75
2021/06/11 02:20:51;;;;;;;9.47;8.57;;;14.30;99.90;;;;;;5089775;28;20461;-75
2021/06/11 02:23:18;;;;;;;10.10;9.20;;;14.30;99.90;;;;;;5090568;28;20488;-75
2021/06/11 02:25:44;;;;;;;9.70;8.80;;;14.30;99.90;;;;;;5089868;28;20895;-75
2021/06/11 02:28:15;;;;;;;9.73;8.60;;;14.30;99.90;;;;;;5090628;28;20453;-75
2021/06/11 02:30:41;;;;;;;9.93;9.00;;;14.30;99.90;;;;;;5090034;28;21018;-75
2021/06/11 02:33:10;;;;;;;10.20;9.10;;;14.30;99.90;;;;;;5090408;28;20531;-75
2021/06/11 02:35:36;;;;;;;9.83;8.93;;;14.30;99.90;;;;;;5090236;28;20462;-75
2021/06/11 02:38:03;;;;;;;10.57;9.43;;;14.30;99.90;;;;;;5090042;28;20460;-75
2021/06/11 02:40:29;;;;;;;10.60;9.50;;;14.30;99.90;;;;;;5090335;28;20464;-75
2021/06/11 02:42:59;;;;;;;10.30;9.23;;;14.30;99.90;;;;;;5089913;28;20488;-75
2021/06/11 02:45:29;;;;;;;10.63;9.30;;;14.30;99.90;;;;;;5090356;28;20482;-75
2021/06/11 02:48:05;;;;;;;11.07;10.07;;;14.30;99.90;;;;;;5089898;28;21029;-75
2021/06/11 02:50:36;;;;;;;10.60;9.53;;;14.30;99.90;;;;;;5090291;28;20453;-75
2021/06/11 02:53:05;;;;;;;11.10;9.80;;;14.30;99.90;;;;;;5090141;28;20480;-75
2021/06/11 02:55:34;;;;;;;10.47;9.43;;;14.20;99.90;;;;;;5089690;28;20464;-75
2021/06/11 02:58:09;;;;;;;9.27;8.30;;;14.20;99.90;;;;;;5090371;28;20458;-75
2021/06/11 03:00:38;;;;;;;10.50;9.40;;;14.20;99.90;;;;;;5089901;28;20472;-75
2021/06/11 03:03:08;;;;;;;9.57;8.67;;;14.10;99.90;;;;;;5089873;28;20454;-75
2021/06/11 03:05:37;;;;;;;9.53;8.53;;;14.10;99.90;;;;;;5093389;28;20485;-75
2021/06/11 03:08:08;;;;;;;10.33;9.00;;;14.00;99.90;;;;;;5094143;28;20461;-75
2021/06/11 03:10:36;;;;;;;10.70;9.10;;;14.00;99.90;;;;;;5093877;28;20453;-75
2021/06/11 03:13:04;;;;;;;11.00;9.90;;;14.00;99.90;;;;;;5093427;28;20485;-75
2021/06/11 03:15:33;;;;;;;10.57;9.57;;;14.00;99.90;;;;;;5093736;28;20464;-75
2021/06/11 03:18:03;;;;;;;9.43;8.60;;;14.00;99.90;;;;;;5093511;28;20468;-75
2021/06/11 03:20:34;;;;;;;10.10;9.10;;;14.00;99.90;;;;;;5093890;28;20465;-75
2021/06/11 03:23:06;;;;;;;10.83;9.83;;;14.00;99.90;;;;;;5093123;28;20514;-75
2021/06/11 03:25:38;;;;;;;11.00;9.90;;;13.90;99.90;;;;;;5093630;28;20490;-75
2021/06/11 03:28:09;;;;;;;10.60;9.60;;;13.90;99.90;;;;;;5093625;28;20466;-75
2021/06/11 03:30:36;;;;;;;10.60;9.60;;;13.90;99.90;;;;;;5093346;28;20469;-75
2021/06/11 03:33:07;;;;;;;10.73;9.73;;;13.90;99.90;;;;;;5093290;28;20979;-75
2021/06/11 03:35:36;;;;;;;11.30;10.20;;;13.80;99.90;;;;;;5093025;28;20472;-75
2021/06/11 03:38:08;;;;;;;14.13;10.50;;;13.80;99.90;;;;;;5093505;28;20461;-75
2021/06/11 03:40:38;;;;;;;9.90;8.87;;;13.80;99.90;;;;;;5092966;28;20465;-75
2021/06/11 03:43:04;;;;;;;10.10;9.20;;;13.80;99.90;;;;;;5093259;28;20461;-74
2021/06/11 03:45:31;;;;;;;10.20;9.20;;;13.80;99.90;;;;;;5093167;28;20539;-75
2021/06/11 03:48:02;;;;;;;9.77;8.87;;;13.80;99.90;;;;;;5092966;28;20458;-75
2021/06/11 03:50:29;;;;;;;10.50;9.40;;;13.80;99.90;;;;;;5093252;28;20834;-75
2021/06/11 03:52:59;;;;;;;12.00;9.70;;;13.80;99.90;;;;;;5092390;28;21022;-74
2021/06/11 03:55:29;;;;;;;13.02;11.73;;;13.70;99.90;;;;;;5092549;28;20444;-74
2021/06/11 03:57:59;;;;;;;11.00;9.90;;;13.80;99.90;;;;;;5092540;28;20214;-74
2021/06/11 04:00:28;;;;;;;10.80;9.77;;;13.70;99.90;;;;;;5090597;28;20485;-73
2021/06/11 04:02:55;;;;;;;10.47;9.37;;;13.70;99.90;;;;;;5078051;28;20484;-73
2021/06/11 04:05:21;;;;;;;10.63;9.63;;;13.70;99.90;;;;;;5086637;28;20481;-74
2021/06/11 04:07:52;;;;;;;10.80;9.80;;;13.70;99.90;;;;;;5095332;28;20465;-74
2021/06/11 04:10:24;;;;;;;10.40;9.03;;;13.70;99.90;;;;;;5091163;28;20531;-73
2021/06/11 04:12:54;;;;;;;10.40;9.40;;;13.70;99.90;;;;;;5097218;28;20469;-74
2021/06/11 04:15:20;;;;;;;9.90;9.00;;;13.80;99.90;;;;;;5103824;28;20455;-73
2021/06/11 04:17:52;;;;;;;10.67;9.67;;;13.70;99.90;;;;;;5095976;28;20454;-74
2021/06/11 04:20:22;;;;;;;13.00;9.93;;;13.80;99.90;;;;;;5085463;28;20465;-74
2021/06/11 04:22:50;;;;;;;10.10;9.10;;;13.80;99.90;;;;;;5071304;28;20462;-73
2021/06/11 04:25:17;;;;;;;11.00;9.90;;;13.80;99.90;;;;;;5074842;28;21040;-73
2021/06/11 04:27:49;;;;;;;10.30;9.30;;;13.80;99.90;;;;;;5085709;28;20839;-73
2021/06/11 04:30:17;;;;;;;9.40;8.50;;;13.90;99.90;;;;;;5092878;28;20458;-73
2021/06/11 04:32:44;;;;;;;9.73;8.80;;;13.90;99.90;;;;;;5092016;28;20511;-73
2021/06/11 04:35:11;;;;;;;10.90;9.90;;;13.90;99.90;;;;;;5091281;28;20469;-73
2021/06/11 04:37:38;;;;;;;10.07;9.07;;;14.00;99.90;;;;;;5092064;28;20458;-73
2021/06/11 04:40:06;;;;;;;14.70;13.20;;;14.00;99.90;;;;;;5091812;28;20457;-73
2021/06/11 04:42:34;;;;;;;15.33;13.73;;;14.00;99.90;;;;;;5092019;28;20963;-73
2021/06/11 04:45:01;;;;;;;12.87;11.57;;;14.00;99.90;;;;;;5092072;28;20890;-73
2021/06/11 04:47:29;;;;;;;11.70;10.60;;;14.10;99.90;;;;;;5091622;28;20511;-73
2021/06/11 04:49:56;;;;;;;12.57;11.13;;;14.10;99.90;;;;;;5092057;28;20895;-73
2021/06/11 04:52:22;;;;;;;13.27;11.80;;;14.20;99.90;;;;;;5091366;28;20465;-73
2021/06/11 04:54:49;;;;;;;12.97;11.63;;;14.20;99.90;;;;;;5091710;28;20989;-73
2021/06/11 04:57:16;;;;;;;12.87;11.57;;;14.30;99.90;;;;;;5092081;28;20460;-73
2021/06/11 04:59:42;;;;;;;12.10;10.83;;;14.30;99.90;;;;;;5091304;28;20458;-73
2021/06/11 05:02:08;;;;;;;11.97;10.77;;;14.40;99.90;;;;;;5091682;28;20506;-73
2021/06/11 05:04:36;;;;;;;13.27;11.57;;;14.50;99.90;;;;;;5090931;28;20481;-73
2021/06/11 05:07:03;;;;;;;12.03;10.80;;;14.50;99.90;;;;;;5091980;28;20953;-73
2021/06/11 05:09:29;;;;;;;12.23;10.93;;;14.60;99.90;;;;;;5091400;28;20462;-73
2021/06/11 05:11:55;;;;;;;12.30;11.10;;;14.70;99.90;;;;;;5091450;28;20458;-73
2021/06/11 05:14:22;;;;;;;12.53;9.93;;;14.80;99.90;;;;;;5091577;28;20486;-73
2021/06/11 05:16:48;;;;;;;11.50;10.40;;;14.90;99.90;;;;;;5091081;28;20458;-73
2021/06/11 05:19:14;;;;;;;11.80;10.50;;;14.90;99.90;;;;;;5091509;28;20462;-73
2021/06/11 05:21:42;;;;;;;11.93;10.73;;;15.00;99.90;;;;;;5090603;28;20849;-73
2021/06/11 05:24:08;;;;;;;11.03;9.93;;;15.10;99.90;;;;;;5091231;28;20481;-73
2021/06/11 05:26:35;;;;;;;12.83;10.57;;;15.10;99.90;;;;;;5090265;28;20477;-73
2021/06/11 05:29:01;;;;;;;11.63;10.43;;;15.20;99.90;;;;;;5091249;28;21058;-73
2021/06/11 05:31:27;;;;;;;11.10;10.03;;;15.20;99.90;;;;;;5091215;28;20976;-73
2021/06/11 05:33:54;;;;;;;12.67;11.37;;;15.30;99.90;;;;;;5090031;28;20485;-73
2021/06/11 05:36:20;;;;;;;10.90;10.00;;;15.40;99.90;;;;;;5091282;28;20480;-73
2021/06/11 05:38:47;;;;;;;11.47;10.47;;;15.50;99.90;;;;;;5090457;28;20465;-73
2021/06/11 05:41:14;;;;;;;11.53;10.33;;;15.50;99.90;;;;;;5090804;28;20515;-73
2021/06/11 05:43:40;;;;;;;11.17;10.07;;;15.60;99.90;;;;;;5090414;28;20486;-73
2021/06/11 05:46:06;;;;;;;12.80;11.50;;;15.70;99.90;;;;;;5091046;28;20482;-73
2021/06/11 05:48:32;;;;;;;10.17;9.27;;;15.70;99.90;;;;;;5090759;28;20469;-73
2021/06/11 05:50:59;;;;;;;11.70;10.50;;;15.80;99.90;;;;;;5090201;28;20680;-73
2021/06/11 05:53:25;;;;;;;11.30;10.27;;;15.90;99.90;;;;;;5090756;28;20513;-73
2021/06/11 05:55:54;;;;;;;10.63;9.63;;;16.00;99.90;;;;;;5090207;28;20645;-74
2021/06/11 05:58:21;;;;;;;10.90;9.80;;;16.10;99.90;;;;;;5090777;28;20470;-73
2021/06/11 06:00:47;;;;;;;10.93;9.90;;;16.20;99.90;;;;;;5090041;28;20461;-73
2021/06/11 06:03:13;;;;;;;10.83;9.73;;;16.30;99.90;;;;;;5090784;28;20481;-73
2021/06/11 06:05:39;;;;;;;11.53;10.43;;;16.30;99.90;;;;;;5090442;28;20485;-73
2021/06/11 06:08:06;;;;;;;11.03;9.83;;;16.40;99.90;;;;;;5090377;28;20511;-73
2021/06/11 06:10:32;;;;;;;10.03;9.13;;;16.50;99.90;;;;;;5090520;28;20453;-73
2021/06/11 06:13:00;;;;;;;9.97;9.07;;;16.60;99.90;;;;;;5089789;28;21169;-74
2021/06/11 06:15:26;;;;;;;10.37;9.47;;;16.70;99.90;;;;;;5090711;28;20545;-74
2021/06/11 06:17:52;;;;;;;10.80;9.70;;;16.70;99.90;;;;;;5090330;28;20457;-74
2021/06/11 06:20:19;;;;;;;10.87;9.87;;;16.90;99.90;;;;;;5090378;28;20461;-74
2021/06/11 06:22:45;;;;;;;11.60;9.83;;;16.90;99.90;;;;;;5090236;28;20461;-74
2021/06/11 06:25:13;;;;;;;10.30;9.40;;;17.00;99.90;;;;;;5089960;28;20530;-73
2021/06/11 06:27:41;;;;;;;11.73;10.10;;;17.10;99.90;;;;;;5090139;28;20458;-74
2021/06/11 06:30:12;;;;;;;10.83;9.80;;;17.20;99.90;;;;;;5090507;28;20464;-74
2021/06/11 06:32:38;;;;;;;10.23;9.33;;;17.30;99.90;;;;;;5089746;28;20495;-74
2021/06/11 06:35:07;;;;;;;10.27;9.37;;;17.40;99.90;;;;;;5090395;28;20496;-74
2021/06/11 06:37:33;;;;;;;10.70;9.80;;;17.50;99.90;;;;;;5089925;28;20538;-74
2021/06/11 06:40:00;;;;;;;11.87;10.70;;;17.50;99.90;;;;;;5093766;28;20875;-74
2021/06/11 06:42:27;;;;;;;9.77;8.97;;;17.60;99.90;;;;;;5093932;28;20454;-74
2021/06/11 06:44:54;;;;;;;11.13;9.70;;;17.70;99.90;;;;;;5094007;28;21051;-74
2021/06/11 06:47:21;;;;;;;10.80;9.73;;;17.80;99.90;;;;;;5094420;28;20469;-74
2021/06/11 06:49:48;;;;;;;10.83;9.83;;;17.90;99.90;;;;;;5093772;28;20472;-74
2021/06/11 06:52:15;;;;;;;12.20;11.00;;;18.00;99.90;;;;;;5093040;28;20476;-74
2021/06/11 06:54:43;;;;;;;10.70;9.70;;;18.10;99.90;;;;;;5091396;28;20467;-74
2021/06/11 06:57:10;;;;;;;11.43;10.53;;;18.20;99.90;;;;;;5092432;28;20472;-73
2021/06/11 06:59:36;;;;;;;11.27;10.30;;;18.20;99.90;;;;;;5091797;28;20971;-74
2021/06/11 07:02:03;;;;;;;11.40;10.40;;;18.30;99.90;;;;;;5091517;28;20548;-74
2021/06/11 07:04:31;;;;;;;11.80;10.63;;;18.40;99.90;;;;;;5091809;28;20546;-74
2021/06/11 07:06:57;;;;;;;10.60;9.73;;;18.60;99.90;;;;;;5091764;28;20489;-74
2021/06/11 07:09:24;;;;;;;11.30;10.30;;;18.70;99.90;;;;;;5091920;28;21014;-74
2021/06/11 07:11:51;;;;;;;11.80;10.70;;;18.80;99.90;;;;;;5091740;28;20465;-74
2021/06/11 07:14:18;;;;;;;12.33;11.13;;;18.80;99.90;;;;;;5091788;28;20481;-74
2021/06/11 07:16:45;;;;;;;12.50;11.40;;;18.90;99.90;;;;;;5092183;28;20457;-75
2021/06/11 07:19:11;;;;;;;11.63;10.53;;;19.00;99.90;;;;;;5091662;28;20464;-73
2021/06/11 07:21:39;;;;;;;11.83;9.90;;;19.10;99.90;;;;;;5091650;28;20454;-73
2021/06/11 07:24:06;;;;;;;11.33;10.23;;;19.30;99.90;;;;;;5091492;28;20490;-75
2021/06/11 07:26:33;;;;;;;11.07;10.00;;;19.30;99.90;;;;;;5091681;28;20827;-74
2021/06/11 07:28:59;;;;;;;11.10;10.10;;;19.40;99.90;;;;;;5092088;28;20457;-74
2021/06/11 07:31:27;;;;;;;12.07;11.00;;;19.50;99.90;;;;;;5090788;28;20461;-75
2021/06/11 07:33:53;;;;;;;11.10;10.00;;;19.60;99.90;;;;;;5091958;28;20503;-75
2021/06/11 07:36:19;;;;;;;12.30;11.00;;;19.70;99.90;;;;;;5091424;28;20453;-75
2021/06/11 07:38:47;;;;;;;11.40;10.30;;;19.80;99.90;;;;;;5088569;28;21354;-74
2021/06/11 07:41:13;;;;;;;11.23;10.23;;;19.90;99.90;;;;;;5085159;28;20606;-73
2021/06/11 07:43:39;;;;;;;11.70;10.50;;;20.00;99.90;;;;;;5085373;28;20852;-73
2021/06/11 07:46:05;;;;;;;10.00;9.10;;;20.10;99.90;;;;;;5090961;28;20481;-74
2021/06/11 07:48:32;;;;;;;10.40;9.40;;;20.20;99.90;;;;;;5090763;28;20472;-74
2021/06/11 07:50:58;;;;;;;10.10;8.83;;;20.20;99.90;;;;;;5090310;28;20887;-74
2021/06/11 07:53:24;;;;;;;9.73;8.80;;;20.30;99.90;;;;;;5090746;28;20543;-73
2021/06/11 07:55:52;;;;;;;9.33;8.43;;;20.40;99.90;;;;;;5090886;28;20468;-73
2021/06/11 07:58:18;;;;;;;9.70;8.87;;;20.50;99.90;;;;;;5091024;28;20465;-73
2021/06/11 08:00:45;;;;;;;10.03;8.97;;;20.70;99.90;;;;;;5090479;28;20839;-73
2021/06/11 08:03:11;;;;;;;11.60;10.43;;;20.70;99.90;;;;;;5090604;28;20465;-73
2021/06/11 08:05:39;;;;;;;10.57;9.57;;;20.80;99.90;;;;;;5090915;28;20477;-73
2021/06/11 08:08:06;;;;;;;9.33;8.53;;;20.80;99.90;;;;;;5090283;28;20472;-73
2021/06/11 08:10:32;;;;;;;10.93;9.83;;;20.90;99.90;;;;;;5090973;28;20519;-73
2021/06/11 08:13:00;;;;;;;10.80;9.90;;;21.00;99.90;;;;;;5090498;28;20458;-73
2021/06/11 08:15:26;;;;;;;12.20;10.47;;;21.10;99.90;;;;;;5090492;28;20508;-73
2021/06/11 08:17:53;;;;;;;11.90;10.63;;;21.20;99.90;;;;;;5090957;28;20457;-74
2021/06/11 08:20:19;;;;;;;11.73;10.63;;;21.30;99.90;;;;;;5090544;28;20987;-73
2021/06/11 08:22:45;;;;;;;9.70;8.90;;;21.40;99.90;;;;;;5090677;28;20474;-74
2021/06/11 08:25:12;;;;;;;9.60;8.80;;;21.40;99.90;;;;;;5090384;28;20493;-73
2021/06/11 08:27:39;;;;;;;12.20;11.10;;;21.60;99.90;;;;;;5090554;28;20602;-73
2021/06/11 08:30:09;;;;;;;10.30;9.40;;;21.60;99.90;;;;;;5090718;28;20892;-74
2021/06/11 08:32:35;;;;;;;11.57;10.50;;;21.70;99.90;;;;;;5089751;28;20949;-73
2021/06/11 08:35:02;;;;;;;10.87;9.87;;;21.80;99.90;;;;;;5090625;28;20854;-74
2021/06/11 08:37:28;;;;;;;12.43;11.33;;;21.90;99.90;;;;;;5090003;28;20461;-74
2021/06/11 08:39:56;;;;;;;12.17;11.00;;;22.00;99.90;;;;;;5090337;28;20453;-74
2021/06/11 08:42:28;;;;;;;13.37;12.07;;;22.20;99.90;;;;;;5090293;28;20516;-73
2021/06/11 08:44:58;;;;;;;13.83;12.57;;;22.20;99.90;;;;;;5090196;28;20875;-73
2021/06/11 08:47:28;;;;;;;12.63;11.37;;;22.30;99.90;;;;;;5090182;28;20465;-73
2021/06/11 08:49:55;;;;;;;11.90;10.70;;;22.30;99.90;;;;;;5089919;28;20457;-73
2021/06/11 08:52:22;;;;;;;11.00;10.00;;;22.30;99.90;;;;;;5089990;28;20950;-74
2021/06/11 08:54:50;;;;;;;11.20;10.10;;;22.30;99.90;;;;;;5089959;28;20481;-73
2021/06/11 08:57:19;;;;;;;10.40;9.50;;;22.40;99.90;;;;;;5089814;28;20560;-73
2021/06/11 08:59:47;;;;;;;9.93;9.03;;;22.50;99.90;;;;;;5090431;28;20776;-74
2021/06/11 09:02:14;;;;;;;11.67;10.50;;;22.60;99.90;;;;;;5084990;28;20484;-73
2021/06/11 09:04:46;;;;;;;10.60;9.60;;;22.80;99.90;;;;;;5089889;28;20497;-74
2021/06/11 09:07:22;;;;;;;12.33;10.70;;;22.90;99.90;;;;;;5089569;28;20489;-73
2021/06/11 09:09:56;;;;;;;11.70;10.60;;;23.00;99.90;;;;;;5090150;28;20490;-74
2021/06/11 09:12:34;;;;;;;10.33;9.33;;;23.00;99.90;;;;;;5089679;28;20469;-74
2021/06/11 09:15:04;;;;;;;11.37;10.37;;;23.00;99.90;;;;;;5089417;28;20488;-74
2021/06/11 09:17:38;;;;;;;8.67;7.90;;;23.10;99.90;;;;;;5089695;28;20470;-74
2021/06/11 09:20:12;;;;;;;11.50;10.50;;;23.20;99.90;;;;;;5089496;28;20462;-73
2021/06/11 09:22:40;;;;;;;10.53;9.63;;;23.30;99.90;;;;;;5088966;28;20499;-74
2021/06/11 09:25:31;;;;;;;11.00;9.90;;;23.40;99.90;;;;;;5089427;28;20478;-73
2021/06/11 09:27:59;;;;;;;13.43;10.67;;;23.50;99.90;;;;;;5089171;28;20466;-74
2021/06/11 09:30:33;;;;;;;12.03;10.83;;;23.60;99.90;;;;;;5077895;28;20458;-74
2021/06/11 09:33:02;;;;;;;12.13;10.20;;;23.70;99.90;;;;;;5068589;28;20462;-73
2021/06/11 09:35:36;;;;;;;11.60;10.50;;;23.80;99.90;;;;;;5069462;28;20450;-73
2021/06/11 09:38:08;;;;;;;9.10;8.30;;;23.80;99.90;;;;;;5085009;28;20508;-74
2021/06/11 09:40:35;;;;;;;10.03;9.13;;;23.90;99.90;;;;;;5089010;28;20804;-73
2021/06/11 09:43:02;;;;;;;11.27;10.27;;;24.00;99.90;;;;;;5089116;28;20465;-74
2021/06/11 09:45:28;;;;;;;10.20;9.13;;;24.00;99.90;;;;;;5088760;28;20509;-73
2021/06/11 09:47:54;;;;;;;9.90;8.90;;;24.10;99.90;;;;;;5089248;28;20461;-74
2021/06/11 09:50:23;;;;;;;10.90;9.67;;;24.20;99.90;;;;;;5076273;28;21208;-74
2021/06/11 09:52:56;;;;;;;11.30;10.40;;;24.30;99.90;;;;;;5076807;28;20459;-73
2021/06/11 09:55:25;;;;;;;11.27;10.17;;;24.40;99.90;;;;;;5067973;28;20494;-74
2021/06/11 09:58:06;;;;;;;9.23;8.43;;;24.40;99.90;;;;;;5067501;28;20465;-73
2021/06/11 10:00:32;;;;;;;10.63;9.47;;;24.50;99.90;;;;;;5068596;28;20470;-74
2021/06/11 10:02:59;;;;;;;10.30;9.30;;;24.70;99.90;;;;;;5074017;28;20519;-73
2021/06/11 10:05:26;;;;;;;10.73;9.70;;;24.70;99.90;;;;;;5123184;22;20497;-68
2021/06/11 10:07:55;;;;;;;10.23;9.33;;;24.70;99.90;;;;;;5100334;28;20456;-68
2021/06/11 10:10:21;;;;;;;11.03;10.13;;;24.60;99.90;;;;;;5108387;28;20548;-68
2021/06/11 10:12:48;;;;;;;10.83;9.60;;;24.60;99.90;;;;;;5108516;28;20464;-67
2021/06/11 10:15:16;;;;;;;10.70;9.10;;;24.50;99.90;;;;;;5102560;28;20484;-68
2021/06/11 10:17:42;;;;;;;9.70;8.80;;;24.40;99.90;;;;;;5071433;28;20462;-66
2021/06/11 10:20:10;;;;;;;9.30;8.50;;;24.30;99.90;;;;;;5105046;28;20509;-68
2021/06/11 10:22:37;;;;;;;10.30;9.30;;;24.30;99.90;;;;;;5089901;28;20461;-68
2021/06/11 10:25:07;;;;;;;8.63;7.93;;;24.30;99.90;;;;;;5089989;28;20864;-67
2021/06/11 10:27:34;;;;;;;9.20;8.43;;;24.50;99.90;;;;;;5086696;28;20454;-68
2021/06/11 10:30:03;;;;;;;9.00;8.30;;;24.60;99.90;;;;;;5073266;28;20465;-67
2021/06/11 10:32:30;;;;;;;9.57;8.77;;;24.70;99.90;;;;;;5069498;28;20458;-67
2021/06/11 10:34:56;;;;;;;10.00;9.20;;;24.90;99.90;;;;;;5069322;28;20474;-68
2021/06/11 10:37:33;;;;;;;8.70;8.00;;;25.10;99.90;;;;;;5070874;28;20816;-68
2021/06/11 10:40:20;;;;;;;9.73;8.83;;;25.30;99.90;;;;;;5089332;28;20464;-68
2021/06/11 10:42:47;;;;;;;8.97;8.27;;;25.50;99.90;;;;;;5089455;28;20511;-68
2021/06/11 10:45:13;;;;;;;9.73;8.90;;;25.60;99.90;;;;;;5089087;28;20842;-68
2021/06/11 10:47:53;;;;;;;9.70;8.17;;;25.60;99.90;;;;;;5090106;28;20468;-68
2021/06/11 10:50:32;;;;;;;8.97;8.27;;;25.60;99.90;;;;;;5089656;28;20472;-67
2021/06/11 10:53:13;;;;;;;10.40;9.50;;;25.60;99.90;;;;;;5089378;28;20521;-67
2021/06/11 10:55:48;;;;;;;9.90;9.10;;;25.60;99.90;;;;;;5089997;28;20855;-68
2021/06/11 10:58:26;;;;;;;7.87;7.27;;;25.70;99.90;;;;;;5089367;28;20461;-68
2021/06/11 11:00:53;;;;;;;9.80;9.00;;;25.90;99.90;;;;;;5089549;28;21011;-67
2021/06/11 11:03:32;;;;;;;9.60;8.67;;;26.00;99.90;;;;;;5089145;28;20598;-67
2021/06/11 11:06:14;;;;;;;8.50;7.80;;;25.80;99.90;;;;;;5089484;28;20572;-67
2021/06/11 11:08:51;;;;;;;9.37;8.57;;;25.60;99.90;;;;;;5088785;28;20461;-67
2021/06/11 11:11:31;;;;;;;9.93;9.13;;;25.40;99.90;;;;;;5088984;28;20965;-68
2021/06/11 11:13:59;;;;;;;9.13;8.43;;;25.10;99.90;;;;;;5089659;28;20453;-68
2021/06/11 11:16:26;;;;;;;9.70;8.80;;;24.90;99.90;;;;;;5088942;28;20472;-68
2021/06/11 11:18:54;;;;;;;8.93;8.23;;;24.80;99.90;;;;;;5089523;28;20468;-68
2021/06/11 11:21:25;;;;;;;9.33;8.63;;;24.70;99.90;;;;;;5088952;28;20461;-67
2021/06/11 11:23:53;;;;;;;9.70;9.00;;;24.60;99.90;;;;;;5089455;28;20464;-67
2021/06/11 11:26:20;;;;;;;10.33;8.53;;;24.50;99.90;;;;;;5092404;28;20550;-68
2021/06/11 11:28:48;;;;;;;9.50;8.67;;;24.60;99.90;;;;;;5092692;28;20510;-68
2021/06/11 11:31:15;;;;;;;9.20;8.50;;;24.80;99.90;;;;;;5092532;28;20457;-67
2021/06/11 11:33:41;;;;;;;9.33;8.60;;;25.20;99.90;;;;;;5092526;28;20832;-68
2021/06/11 11:36:08;;;;;;;10.70;9.60;;;25.40;99.90;;;;;;5092911;28;20476;-69
2021/06/11 11:38:34;;;;;;;9.83;9.03;;;25.60;99.90;;;;;;5093249;28;20453;-68
2021/06/11 11:41:00;;;;;;;9.30;8.60;;;25.70;99.90;;;;;;5076829;28;20465;-67
2021/06/11 11:43:27;;;;;;;9.73;8.93;;;25.90;99.90;;;;;;5072647;28;20470;-67
2021/06/11 11:45:54;;;;;;;9.53;8.63;;;26.00;99.90;;;;;;5072252;28;20535;-68
2021/06/11 11:48:24;;;;;;;9.60;8.70;;;26.20;99.90;;;;;;5072407;28;20463;-68
2021/06/11 11:50:50;;;;;;;9.47;8.67;;;26.30;99.90;;;;;;5071856;28;20473;-68
2021/06/11 11:53:16;;;;;;;9.70;8.90;;;26.30;99.90;;;;;;5072238;28;20520;-68
2021/06/11 11:55:43;;;;;;;8.53;7.80;;;26.30;99.90;;;;;;5088323;28;20479;-68
2021/06/11 11:58:10;;;;;;;10.13;9.33;;;26.30;99.90;;;;;;5081830;28;20484;-68
2021/06/11 12:00:36;;;;;;;8.73;8.10;;;26.10;99.90;;;;;;5082522;28;20500;-67
2021/06/11 12:03:04;;;;;;;9.50;8.70;;;25.80;99.90;;;;;;5080632;28;20820;-68
2021/06/11 12:05:30;;;;;;;8.80;8.10;;;25.60;99.90;;;;;;5081985;28;20558;-66
2021/06/11 12:07:56;;;;;;;9.03;8.30;;;25.30;99.90;;;;;;5082459;28;20493;-68
2021/06/11 12:10:24;;;;;;;9.37;8.57;;;25.20;99.90;;;;;;5080122;28;20848;-68
2021/06/11 12:12:50;;;;;;;8.93;8.13;;;25.10;99.90;;;;;;5082074;28;20454;-68
2021/06/11 12:15:18;;;;;;;9.47;8.57;;;25.10;99.90;;;;;;5084519;28;20531;-68
2021/06/11 12:17:44;;;;;;;8.87;8.10;;;25.30;99.90;;;;;;5092330;28;20819;-68
2021/06/11 12:20:13;;;;;;;9.03;8.27;;;25.60;99.90;;;;;;5091496;28;20479;-67
2021/06/11 12:22:39;;;;;;;9.20;8.50;;;25.90;99.90;;;;;;5091993;28;20862;-68
2021/06/11 12:25:07;;;;;;;8.57;7.87;;;26.20;99.90;;;;;;5091993;28;20556;-67
2021/06/11 12:27:33;;;;;;;8.33;7.60;;;26.30;99.90;;;;;;5091033;28;20487;-68
2021/06/11 12:30:00;;;;;;;8.57;7.83;;;26.50;99.90;;;;;;5077484;28;20522;-68
2021/06/11 12:32:26;;;;;;;9.00;8.20;;;26.60;99.90;;;;;;5079239;28;20458;-67
2021/06/11 12:34:52;;;;;;;9.27;8.47;;;26.70;99.90;;;;;;5079198;28;20474;-68
2021/06/11 12:37:20;;;;;;;8.17;7.50;;;26.80;99.90;;;;;;5079350;28;20454;-67
2021/06/11 12:39:49;;;;;;;8.90;8.00;;;26.90;99.90;;;;;;5077966;28;20824;-67
2021/06/11 12:42:20;;;;;;;8.17;7.57;;;26.90;99.90;;;;;;5078692;28;20451;-66
2021/06/11 12:44:47;;;;;;;7.63;7.00;;;26.90;99.90;;;;;;5080940;28;20482;-68